• Join FlightAware (Why Join?)
  • Login
  • US Flag 
08:15PM EDT


 

Airport Tracker/Info


-or-


 

Live Flight TrackerFlight Track Log ✈ AWI3778 ✈ 24-Apr-2013 ✈ KBTV - KPHL

Flight Track Log - Related Links

Times and Time Zones

All times are in EDT time to prevent confusion due to time zone crossing. See the AWI3778 flight status page for this flight to view local times or setup timezone preferences in your user account.

Time Position Orientation Groundspeed Altitude Reporting Facility
EDT Latitude Longitude Course Direction KTS MPH feet Rate Location/Type
01:24PM 44.2043 -73.2450 196° South  Level FlightAware Approximate
01:24PM 44.3256 -73.1831 196° South 215 247 8,000  Level Boston Center
01:25PM 44.1171 -73.2798 196° South  Level FlightAware Approximate
01:25PM 44.2650 -73.2056 195° South 238 274 10,200  Level Boston Center
01:26PM 44.0300 -73.3147 196° South  Level FlightAware Approximate
01:26PM 44.2042 -73.2656 215° Southwest 262 302 12,300  Level Boston Center
01:27PM 43.9428 -73.3496 196° South  Level FlightAware Approximate
01:27PM 44.1369 -73.3397 218° Southwest 297 342 14,400  Level Boston Center
01:28PM 43.8554 -73.3832 195° South  Level FlightAware Approximate
01:28PM 44.0617 -73.3847 203° Southwest 302 348 16,800  Level Boston Center
01:29PM 43.9739 -73.4150 194° South 310 357 18,600 1,500 Climbing Boston Center
01:30PM 43.8839 -73.4453 194° South 327 376 19,900 660 Climbing Boston Center
01:31PM 43.7919 -73.4756 193° South 338 389 20,000 900 Climbing Boston Center
01:32PM 43.6917 -73.5081 193° South 343 395 21,700 1,380 Climbing Boston Center
01:33PM 43.5975 -73.5381 193° South 343 395 22,800 1,140 Climbing Boston Center
01:34PM 43.4994 -73.5706 194° South 348 400 24,000 1,200 Climbing Boston Center
01:35PM 43.3989 -73.6003 192° South 360 414 25,300 960 Climbing Boston Center
01:36PM 43.2986 -73.6297 192° South 370 426 26,000 300 Climbing Boston Center
01:37PM 43.2025 -73.6619 194° South 370 426 26,000  Level Boston Center
01:38PM 43.1106 -73.6914 193° South 375 432 26,000  Level Boston Center
01:39PM 43.0142 -73.7236 194° South 369 425 26,000  Level Boston Center
01:40PM 42.9158 -73.7528 192° South 364 419 26,000  Level Boston Center
01:41PM 42.8156 -73.7844 193° South 364 419 26,000  Level Boston Center
01:42PM 42.7314 -73.8450 208° Southwest 345 397 26,000  Level Boston Center
01:43PM 42.6758 -73.9508 234° Southwest 335 386 26,000  Level Boston Center
01:44PM 42.6222 -74.0625 237° Southwest 340 391 26,000  Level Boston Center
01:45PM 42.5664 -74.1822 238° Southwest 350 403 26,000  Level Boston Center
01:46PM 42.5125 -74.2878 235° Southwest 350 403 26,000  Level Boston Center
01:47PM 42.4606 -74.3989 238° Southwest 350 403 26,000  Level Boston Center
01:48PM 42.4025 -74.5067 234° Southwest 350 403 26,000  Level Boston Center
01:49PM 42.3525 -74.6147 238° Southwest 350 403 26,000  Level Boston Center
01:50PM 42.2983 -74.7222 236° Southwest 350 403 26,000 -1,020 Level Boston Center
01:52PM 42.1897 -74.9328 235° Southwest 338 389 23,100 -1,440 Descending New York Center
01:53PM 42.1228 -75.0042 218° Southwest 343 395 21,800 -1,440 Descending New York Center
01:54PM 42.0411 -75.0714 211° Southwest 343 395 20,300 -960 Descending New York Center
01:56PM 41.8844 -75.2006 212° Southwest 338 389 19,000 -660 Descending New York Center
01:57PM 41.8069 -75.2650 212° Southwest 333 383 18,500 -1,140 Descending New York Center
01:58PM 41.7214 -75.3314 210° Southwest 333 383 16,700 -1,680 Descending New York Center
01:59PM 41.6481 -75.3903 211° Southwest 327 376 15,200 -1,560 Descending New York Center
02:00PM 41.5750 -75.4489 211° Southwest 322 371 13,700 -1,380 Descending New York Center
02:01PM 41.5106 -75.4997 211° Southwest 312 359 12,600 -900 Descending New York Center
02:02PM 41.4417 -75.5558 211° Southwest 305 351 11,900 -360 Descending New York Center
02:03PM 41.3664 -75.6169 211° Southwest 305 351 11,900  Level New York Center
02:04PM 41.3039 -75.6647 210° Southwest 305 351 11,900  Level New York Center
02:05PM 41.2175 -75.6889 192° South 293 337 11,900  Level New York Center
02:06PM 41.1383 -75.6886 180° South 312 359 11,900  Level New York Center
02:07PM 41.0531 -75.6881 180° South 312 359 11,900  Level New York Center
02:08PM 40.9675 -75.6872 180° South 312 359 12,000  Climbing New York Center
02:09PM 40.8739 -75.6889 181° South 312 359 12,000  Level New York Center
02:10PM 40.7886 -75.6853 178° South 307 353 12,000  Level New York Center
02:11PM 40.7031 -75.6847 180° South 307 353 12,000 -60 Level New York Center
02:12PM 40.6261 -75.6847 180° South 307 353 11,900 -420 Descending New York Center
02:13PM 40.5453 -75.6111 145° Southeast 342 394 11,200 -780 Descending FAA TRACON SMA TRACON (SMA)
02:13PM 40.5269 -75.5786 127° Southeast 344 396 10,900 -780 Descending FAA TRACON SMA TRACON (SMA)
02:13PM 40.5108 -75.5506 127° Southeast 338 389 10,700 -1,080 Descending FAA TRACON SMA TRACON (SMA)
02:14PM 40.4925 -75.5125 122° Southeast 313 360 10,200 -1,320 Descending FAA TRACON SMA TRACON (SMA)
02:14PM 40.4778 -75.4833 124° Southeast 300 345 9,900 -960 Descending FAA TRACON SMA TRACON (SMA)
02:14PM 40.4642 -75.4589 126° Southeast 292 336 9,600 -900 Descending FAA TRACON SMA TRACON (SMA)
02:15PM 40.4481 -75.4356 132° Southeast 264 304 9,300 -1,080 Descending FAA TRACON SMA TRACON (SMA)
02:15PM 40.4258 -75.4211 154° Southeast 244 281 8,900 -1,080 Descending FAA TRACON SMA TRACON (SMA)
02:15PM 40.4064 -75.4061 150° Southeast 243 280 8,600 -900 Descending FAA TRACON SMA TRACON (SMA)
02:16PM 40.3875 -75.3964 159° South 238 274 8,300 -1,080 Descending FAA TRACON SMA TRACON (SMA)
02:16PM 40.3644 -75.3831 156° South 236 272 7,900 -1,080 Descending FAA TRACON SMA TRACON (SMA)
02:16PM 40.3486 -75.3775 165° South 230 265 7,600 -1,080 Descending FAA TRACON SMA TRACON (SMA)
02:17PM 40.3294 -75.3869 201° Southwest 217 250 7,200 -900 Descending FAA TRACON SMA TRACON (SMA)
02:17PM 40.3089 -75.3983 203° Southwest 210 242 7,000 -300 Descending FAA TRACON SMA TRACON (SMA)
02:17PM 40.2944 -75.4056 201° Southwest 193 222 7,000  Level FAA TRACON SMA TRACON (SMA)
02:18PM 40.2767 -75.4142 200° South 203 234 7,000  Level FAA TRACON SMA TRACON (SMA)
02:18PM 40.2539 -75.4036 161° South 228 262 7,000  Level FAA TRACON SMA TRACON (SMA)
02:18PM 40.2364 -75.3947 159° South 226 260 7,000  Level FAA TRACON SMA TRACON (SMA)
02:19PM 40.2181 -75.3856 159° South 224 258 7,000  Level FAA TRACON SMA TRACON (SMA)
02:19PM 40.1953 -75.3731 157° South 225 259 7,000 -180 Level FAA TRACON SMA TRACON (SMA)
02:19PM 40.1789 -75.3656 161° South 225 259 6,900 -600 Descending FAA TRACON SMA TRACON (SMA)
02:20PM 40.1603 -75.3556 158° South 224 258 6,600 -1,080 Descending FAA TRACON SMA TRACON (SMA)
02:20PM 40.1428 -75.3303 132° Southeast 231 266 6,200 -960 Descending FAA TRACON SMA TRACON (SMA)
02:20PM 40.1308 -75.3139 134° Southeast 233 268 6,000 -360 Descending FAA TRACON SMA TRACON (SMA)
02:21PM 40.1131 -75.2892 133° Southeast 232 267 6,000  Level FAA TRACON SMA TRACON (SMA)
02:21PM 40.0986 -75.2686 133° Southeast 233 268 6,000  Level FAA TRACON SMA TRACON (SMA)
02:21PM 40.0853 -75.2486 131° Southeast 233 268 6,000  Level FAA TRACON SMA TRACON (SMA)
02:22PM 40.0722 -75.2289 131° Southeast 233 268 6,000  Level FAA TRACON SMA TRACON (SMA)
02:22PM 40.0581 -75.2108 136° Southeast 227 261 6,000  Level FAA TRACON SMA TRACON (SMA)
02:22PM 40.0386 -75.1989 155° Southeast 213 245 6,000  Level FAA TRACON SMA TRACON (SMA)
02:23PM 40.0197 -75.1928 166° South 219 252 6,000  Level FAA TRACON SMA TRACON (SMA)
02:23PM 39.9967 -75.1819 160° South 223 257 6,000  Level FAA TRACON SMA TRACON (SMA)
02:23PM 39.9836 -75.1628 132° Southeast 245 282 6,000  Level FAA TRACON SMA TRACON (SMA)
02:24PM 39.9806 -75.1367 99° East 241 277 6,000 -480 Level FAA TRACON SMA TRACON (SMA)
02:24PM 39.9867 -75.1067 75° East 230 265 5,700 -1,260 Descending FAA TRACON SMA TRACON (SMA)
02:24PM 39.9922 -75.0856 71° East 222 255 5,200 -1,740 Descending FAA TRACON SMA TRACON (SMA)
02:25PM 39.9967 -75.0597 77° East 217 250 4,600 -1,680 Descending FAA TRACON SMA TRACON (SMA)
02:25PM 39.9903 -75.0331 107° East 180 207 4,100 -1,080 Descending FAA TRACON SMA TRACON (SMA)
02:25PM 39.9769 -75.0297 169° South 156 180 3,900 -1,320 Descending FAA TRACON SMA TRACON (SMA)
02:26PM 39.9669 -75.0414 222° Southwest 165 190 3,300 -1,920 Descending FAA TRACON SMA TRACON (SMA)
02:26PM 39.9558 -75.0581 229° Southwest 169 194 2,700 -1,680 Descending FAA TRACON SMA TRACON (SMA)
02:26PM 39.9464 -75.0719 228° Southwest 168 193 2,200 -1,080 Descending FAA TRACON SMA TRACON (SMA)
02:27PM 39.9367 -75.0872 230° Southwest 166 191 2,000 -600 Descending FAA TRACON SMA TRACON (SMA)